createdAt,value
2018-08-28T00:01:23.074Z,82.82
2018-08-28T00:03:52.804Z,82.99
2018-08-28T00:06:21.429Z,82.97
2018-08-28T00:08:50.404Z,83.77
2018-08-28T00:11:20.073Z,84.43
2018-08-28T00:13:48.776Z,84.26
2018-08-28T00:16:17.488Z,84.33
2018-08-28T00:18:47.120Z,84.33
2018-08-28T00:21:15.903Z,84.60
2018-08-28T00:23:44.864Z,85.51
2018-08-28T00:26:13.425Z,85.52
2018-08-28T00:28:43.621Z,84.97
2018-08-28T00:31:12.729Z,85.80
2018-08-28T00:33:42.049Z,85.82
2018-08-28T00:36:11.258Z,85.97
2018-08-28T00:38:40.376Z,86.18
2018-08-28T00:41:09.204Z,86.46
2018-08-28T00:43:37.808Z,86.22
2018-08-28T00:46:07.036Z,86.00
2018-08-28T00:48:36.318Z,86.12
2018-08-28T00:51:05.284Z,86.12
2018-08-28T00:53:34.666Z,86.32
2018-08-28T00:56:03.334Z,87.02
2018-08-28T00:58:33.160Z,86.82
2018-08-28T01:01:03.396Z,87.33
2018-08-28T01:03:32.185Z,88.08
2018-08-28T01:06:00.856Z,88.00
2018-08-28T01:08:29.714Z,88.59
2018-08-28T01:10:59.224Z,88.07
2018-08-28T01:13:29.575Z,88.54
2018-08-28T01:15:58.286Z,88.26
2018-08-28T01:18:27.044Z,89.03
2018-08-28T01:20:56.245Z,88.80
2018-08-28T01:23:24.804Z,88.78
2018-08-28T01:25:53.544Z,87.88
2018-08-28T01:28:22.385Z,88.64
2018-08-28T01:30:51.114Z,89.01
2018-08-28T01:33:20.320Z,89.35
2018-08-28T01:35:50.206Z,89.59
2018-08-28T01:38:18.796Z,89.47
2018-08-28T01:40:47.982Z,89.48
2018-08-28T01:43:21.950Z,89.57
2018-08-28T01:45:50.960Z,89.97
2018-08-28T01:48:20.639Z,90.01
2018-08-28T01:50:49.415Z,89.53
2018-08-28T01:53:18.915Z,89.93
2018-08-28T01:55:47.861Z,89.18
2018-08-28T01:58:18.515Z,89.70
2018-08-28T02:00:47.331Z,89.65
2018-08-28T02:03:16.548Z,90.00
2018-08-28T02:05:45.262Z,89.95
2018-08-28T02:08:14.319Z,89.93
2018-08-28T02:10:43.725Z,90.53
2018-08-28T02:13:12.400Z,90.42
2018-08-28T02:15:42.931Z,90.52
2018-08-28T02:18:13.055Z,90.80
2018-08-28T02:20:41.751Z,91.64
2018-08-28T02:23:10.713Z,91.76
2018-08-28T02:25:39.255Z,91.54
2018-08-28T02:28:08.090Z,91.28
2018-08-28T02:30:37.319Z,90.68
2018-08-28T02:33:06.244Z,91.73
2018-08-28T02:35:35.015Z,91.20
2018-08-28T02:38:03.884Z,92.06
2018-08-28T02:40:32.629Z,91.81
2018-08-28T02:43:01.426Z,91.32
2018-08-28T02:45:30.959Z,91.47
2018-08-28T02:48:00.421Z,91.74
2018-08-28T02:50:29.145Z,92.05
2018-08-28T02:52:58.394Z,91.84
2018-08-28T02:55:27.811Z,91.33
2018-08-28T02:57:57.356Z,92.12
2018-08-28T03:00:26.020Z,91.89
2018-08-28T03:02:55.460Z,91.86
2018-08-28T03:05:24.680Z,91.52
2018-08-28T03:07:53.634Z,91.63
2018-08-28T03:10:22.451Z,91.66
2018-08-28T03:12:51.206Z,92.12
2018-08-28T03:15:20.384Z,92.15
2018-08-28T03:17:50.220Z,91.98
2018-08-28T03:20:18.817Z,91.99
2018-08-28T03:22:48.036Z,92.41
2018-08-28T03:25:16.678Z,92.29
2018-08-28T03:31:35.630Z,92.64
2018-08-28T03:34:04.470Z,93.19
2018-08-28T03:36:33.991Z,92.82
2018-08-28T03:39:03.014Z,92.95
2018-08-28T03:41:32.236Z,92.52
2018-08-28T03:44:00.897Z,92.31
2018-08-28T03:46:29.979Z,92.28
2018-08-28T03:48:58.824Z,91.82
2018-08-28T03:51:27.527Z,92.30
2018-08-28T03:53:56.955Z,92.12
2018-08-28T03:56:26.670Z,92.38
2018-08-28T03:58:55.296Z,93.59
2018-08-28T04:01:24.020Z,93.00
2018-08-28T04:03:53.308Z,92.95
2018-08-28T04:06:21.919Z,92.60
2018-08-28T04:08:51.001Z,93.03
2018-08-28T04:11:20.560Z,93.16
2018-08-28T04:13:49.471Z,92.51
2018-08-28T04:16:18.306Z,92.45
2018-08-28T04:18:47.612Z,93.04
2018-08-28T04:21:17.167Z,93.00
2018-08-28T04:23:46.401Z,92.81
2018-08-28T04:26:15.635Z,93.28
2018-08-28T04:28:45.346Z,93.08
2018-08-28T04:31:14.805Z,92.98
2018-08-28T04:33:43.557Z,93.19
2018-08-28T04:36:12.221Z,93.29
2018-08-28T04:38:41.793Z,93.28
2018-08-28T04:41:11.116Z,93.39
2018-08-28T04:43:40.807Z,93.87
2018-08-28T04:46:10.521Z,93.72
2018-08-28T04:48:39.239Z,93.43
2018-08-28T04:51:08.510Z,93.54
2018-08-28T04:53:37.227Z,93.34
2018-08-28T04:56:05.953Z,93.58
2018-08-28T04:58:35.755Z,93.79
2018-08-28T05:01:04.981Z,92.84
2018-08-28T05:03:34.652Z,92.64
2018-08-28T05:06:03.257Z,92.89
2018-08-28T05:08:32.772Z,93.33
2018-08-28T05:11:01.562Z,93.49
2018-08-28T05:13:30.258Z,93.69
2018-08-28T05:15:59.123Z,93.56
2018-08-28T05:18:28.395Z,93.00
2018-08-28T05:20:57.746Z,92.65
2018-08-28T05:23:26.406Z,92.22
2018-08-28T05:25:55.701Z,91.96
2018-08-28T05:28:26.302Z,91.85
2018-08-28T05:30:55.452Z,91.92
2018-08-28T05:33:24.321Z,92.07
2018-08-28T05:35:53.001Z,91.80
2018-08-28T05:38:22.008Z,91.59
2018-08-28T05:40:51.372Z,91.17
2018-08-28T05:43:20.492Z,91.38
2018-08-28T05:45:51.816Z,90.96
2018-08-28T05:48:20.893Z,90.64
2018-08-28T05:50:50.417Z,89.96
2018-08-28T05:53:19.187Z,89.78
2018-08-28T05:55:47.712Z,89.35
2018-08-28T05:58:16.506Z,89.61
2018-08-28T06:00:45.252Z,89.00
2018-08-28T06:03:14.140Z,88.28
2018-08-28T06:05:44.501Z,87.82
2018-08-28T06:08:13.386Z,86.94
2018-08-28T06:10:44.462Z,87.38
2018-08-28T06:13:14.102Z,85.90
2018-08-28T06:15:43.353Z,83.01
2018-08-28T06:18:12.477Z,80.95
2018-08-28T06:20:41.326Z,79.21
2018-08-28T06:23:10.374Z,77.73
2018-08-28T06:25:39.312Z,77.60
2018-08-28T06:28:09.071Z,75.23
2018-08-28T06:30:38.922Z,72.58
2018-08-28T06:33:08.693Z,68.78
2018-08-28T06:35:38.088Z,66.11
2018-08-28T06:38:07.588Z,64.40
2018-08-28T06:40:36.453Z,62.54
2018-08-28T06:43:05.924Z,61.27
2018-08-28T06:45:35.256Z,59.32
2018-08-28T06:48:04.193Z,58.92
2018-08-28T06:50:33.637Z,56.99
2018-08-28T06:53:02.672Z,54.70
2018-08-28T06:55:31.538Z,54.10
2018-08-28T06:58:01.164Z,53.75
2018-08-28T07:00:30.395Z,52.94
2018-08-28T07:02:59.553Z,53.26
2018-08-28T07:05:29.764Z,53.64
2018-08-28T07:07:59.783Z,54.31
2018-08-28T07:10:29.152Z,53.97
2018-08-28T07:12:58.638Z,51.35
2018-08-28T07:15:27.962Z,48.01
2018-08-28T07:17:56.997Z,47.10
2018-08-28T07:20:26.988Z,43.70
2018-08-28T07:22:55.916Z,44.09
2018-08-28T07:25:25.445Z,42.28
2018-08-28T07:27:56.649Z,41.72
2018-08-28T07:30:25.409Z,40.33
2018-08-28T07:32:54.350Z,40.28
2018-08-28T07:35:23.063Z,39.83
2018-08-28T07:37:51.690Z,38.54
2018-08-28T07:40:20.939Z,38.78
2018-08-28T07:42:50.075Z,37.86
2018-08-28T07:45:18.949Z,37.07
2018-08-28T07:47:48.583Z,36.19
2018-08-28T07:50:17.734Z,35.07
2018-08-28T07:52:46.802Z,35.30
2018-08-28T07:55:16.387Z,34.17
2018-08-28T07:57:45.298Z,34.83
2018-08-28T08:00:14.601Z,34.62
2018-08-28T08:02:43.256Z,33.45
2018-08-28T08:05:12.343Z,33.60
2018-08-28T08:07:42.214Z,32.94
2018-08-28T08:10:12.150Z,32.06
2018-08-28T08:12:41.613Z,33.62
2018-08-28T08:15:10.853Z,32.11
2018-08-28T08:17:40.403Z,31.48
2018-08-28T08:20:09.561Z,30.03
2018-08-28T08:22:38.892Z,29.65
2018-08-28T08:25:08.056Z,28.17
2018-08-28T08:27:38.112Z,28.08
2018-08-28T08:30:07.218Z,29.21
2018-08-28T08:32:36.551Z,27.93
2018-08-28T08:35:06.760Z,28.33
2018-08-28T08:37:35.889Z,27.92
2018-08-28T08:40:05.044Z,27.38
2018-08-28T08:42:34.056Z,27.35
2018-08-28T08:45:03.981Z,26.84
2018-08-28T08:47:32.796Z,25.78
2018-08-28T08:50:02.388Z,24.36
2018-08-28T08:52:32.178Z,25.91
2018-08-28T08:55:02.564Z,25.02
2018-08-28T08:57:31.933Z,23.81
2018-08-28T09:00:01.048Z,25.30
2018-08-28T09:02:30.278Z,25.07
2018-08-28T09:04:59.257Z,23.00
2018-08-28T09:07:28.464Z,22.89
2018-08-28T09:09:58.411Z,23.79
2018-08-28T09:12:27.224Z,23.34
2018-08-28T09:14:56.399Z,21.72
2018-08-28T09:17:25.047Z,22.66
2018-08-28T09:19:53.800Z,21.88
2018-08-28T09:22:22.849Z,22.51
2018-08-28T09:24:52.274Z,21.06
2018-08-28T09:27:21.198Z,19.76
2018-08-28T09:29:49.908Z,19.01
2018-08-28T09:32:19.341Z,19.88
2018-08-28T09:34:48.903Z,21.12
2018-08-28T09:37:17.837Z,19.60
2018-08-28T09:39:46.683Z,19.95
2018-08-28T09:42:15.346Z,21.97
2018-08-28T09:44:44.052Z,25.12
2018-08-28T09:47:12.744Z,26.07
2018-08-28T09:49:41.345Z,28.41
2018-08-28T09:52:10.513Z,25.54
2018-08-28T09:54:39.405Z,27.13
2018-08-28T09:57:09.038Z,25.73
2018-08-28T09:59:38.277Z,23.88
2018-08-28T10:02:07.323Z,21.56
2018-08-28T10:04:36.184Z,20.96
2018-08-28T10:07:06.534Z,19.98
2018-08-28T10:09:35.363Z,20.25
2018-08-28T10:12:05.334Z,19.26
2018-08-28T10:14:34.178Z,18.79
2018-08-28T10:17:03.720Z,19.54
2018-08-28T10:19:33.153Z,19.93
2018-08-28T10:22:02.196Z,20.21
2018-08-28T10:24:30.869Z,19.58
2018-08-28T10:26:59.598Z,19.11
2018-08-28T10:29:28.843Z,19.16
2018-08-28T10:31:57.654Z,19.24
2018-08-28T10:34:26.343Z,18.10
2018-08-28T10:36:55.500Z,18.29
2018-08-28T10:39:25.011Z,18.54
2018-08-28T10:41:55.029Z,17.66
2018-08-28T10:44:24.324Z,18.57
2018-08-28T10:46:53.366Z,19.39
2018-08-28T10:49:23.266Z,19.87
2018-08-28T10:51:53.124Z,22.44
2018-08-28T10:54:24.716Z,23.57
2018-08-28T10:56:53.329Z,23.84
2018-08-28T10:59:22.448Z,25.89
2018-08-28T11:01:51.377Z,27.81
2018-08-28T11:04:20.079Z,28.78
2018-08-28T11:06:49.017Z,28.90
2018-08-28T11:09:18.322Z,28.56
2018-08-28T11:11:46.989Z,28.56
2018-08-28T11:14:15.864Z,30.99
2018-08-28T11:16:46.089Z,30.38
2018-08-28T11:19:14.882Z,29.91
2018-08-28T11:21:45.171Z,28.50
2018-08-28T11:24:14.648Z,29.57
2018-08-28T11:26:44.153Z,29.59
2018-08-28T11:29:12.809Z,28.99
2018-08-28T11:31:41.568Z,30.06
2018-08-28T11:34:10.259Z,31.13
2018-08-28T11:36:38.894Z,31.61
2018-08-28T11:39:08.405Z,31.17
2018-08-28T11:41:39.163Z,31.50
2018-08-28T11:44:08.188Z,31.33
2018-08-28T11:46:36.918Z,30.90
2018-08-28T11:49:05.958Z,31.51
2018-08-28T11:51:35.753Z,31.11
2018-08-28T11:54:05.344Z,32.41
2018-08-28T11:56:35.373Z,32.77
2018-08-28T11:59:04.194Z,32.68
2018-08-28T12:01:33.942Z,31.95
2018-08-28T12:04:02.835Z,32.04
2018-08-28T12:06:34.449Z,33.88
2018-08-28T12:09:03.285Z,34.46
2018-08-28T12:11:32.236Z,33.28
2018-08-28T12:14:01.005Z,32.92
2018-08-28T12:16:29.917Z,31.85
2018-08-28T12:19:00.114Z,31.79
2018-08-28T12:21:28.788Z,33.00
2018-08-28T12:23:58.549Z,34.26
2018-08-28T12:26:27.204Z,32.74
2018-08-28T12:29:00.318Z,32.66
2018-08-28T12:31:29.168Z,32.94
2018-08-28T12:33:57.798Z,33.07
2018-08-28T12:36:26.756Z,32.80
2018-08-28T12:38:55.400Z,32.64
2018-08-28T12:41:25.718Z,33.00
2018-08-28T12:43:54.928Z,33.92
2018-08-28T12:46:25.086Z,33.87
2018-08-28T12:48:54.653Z,33.15
2018-08-28T12:51:23.732Z,33.55
2018-08-28T12:53:53.157Z,33.63
2018-08-28T12:56:21.874Z,33.89
2018-08-28T12:58:50.625Z,33.14
2018-08-28T13:01:21.805Z,33.87
2018-08-28T13:03:51.058Z,33.25
2018-08-28T13:06:19.714Z,34.12
2018-08-28T13:08:48.443Z,33.84
2018-08-28T13:11:17.117Z,33.84
2018-08-28T13:13:46.898Z,34.12
2018-08-28T13:16:16.546Z,35.20
2018-08-28T13:18:45.795Z,35.26
2018-08-28T13:21:14.620Z,35.36
2018-08-28T13:23:44.145Z,35.15
2018-08-28T13:26:13.371Z,34.84
2018-08-28T13:28:42.632Z,34.23
2018-08-28T13:31:11.887Z,34.16
2018-08-28T13:33:40.673Z,34.62
2018-08-28T13:36:10.255Z,34.51
2018-08-28T13:38:40.489Z,34.17
2018-08-28T13:41:09.531Z,33.44
2018-08-28T13:43:38.265Z,33.81
2018-08-28T13:46:07.080Z,34.12
2018-08-28T13:48:36.490Z,34.15
2018-08-28T13:51:05.963Z,34.23
2018-08-28T13:53:34.911Z,34.86
2018-08-28T13:56:03.639Z,34.20
2018-08-28T13:58:32.295Z,34.68
2018-08-28T14:01:01.475Z,34.08
2018-08-28T14:03:31.083Z,34.35
2018-08-28T14:06:00.033Z,35.15
2018-08-28T14:08:29.214Z,35.14
2018-08-28T14:10:59.478Z,35.17
2018-08-28T14:13:29.286Z,35.19
2018-08-28T14:16:00.600Z,34.83
2018-08-28T14:18:30.383Z,34.72
2018-08-28T14:20:59.453Z,35.47
2018-08-28T14:23:28.163Z,35.46
2018-08-28T14:25:56.907Z,36.05
2018-08-28T14:28:25.640Z,35.82
2018-08-28T14:30:55.040Z,36.36
2018-08-28T14:33:24.413Z,36.29
2018-08-28T14:35:53.212Z,36.17
2018-08-28T14:38:21.927Z,35.59
2018-08-28T14:40:50.708Z,36.08
2018-08-28T14:43:19.582Z,36.35
2018-08-28T14:45:48.637Z,35.82
2018-08-28T14:48:17.862Z,35.76
2018-08-28T14:50:47.679Z,36.09
2018-08-28T14:53:16.256Z,35.92
2018-08-28T14:55:45.064Z,35.70
2018-08-28T14:58:14.595Z,35.53
2018-08-28T15:00:43.294Z,35.96
2018-08-28T15:03:12.188Z,36.20
2018-08-28T15:05:41.293Z,36.48
2018-08-28T15:08:10.203Z,36.88
2018-08-28T15:10:38.989Z,36.77
2018-08-28T15:13:08.144Z,36.09
2018-08-28T15:15:36.828Z,36.06
2018-08-28T15:18:05.777Z,36.12
2018-08-28T15:20:34.630Z,36.22
2018-08-28T15:23:03.854Z,37.27
2018-08-28T15:25:32.779Z,37.36
2018-08-28T15:28:02.333Z,37.47
2018-08-28T15:30:31.465Z,37.34
2018-08-28T15:33:00.991Z,37.92
2018-08-28T15:35:30.647Z,37.27
2018-08-28T15:38:00.117Z,38.15
2018-08-28T15:40:29.653Z,37.37
2018-08-28T15:42:58.893Z,37.93
2018-08-28T15:45:28.815Z,37.86
2018-08-28T15:47:57.685Z,37.91
2018-08-28T15:50:26.273Z,38.02
2018-08-28T15:52:55.589Z,38.97
2018-08-28T15:55:24.326Z,39.93
2018-08-28T15:57:52.978Z,39.03
2018-08-28T16:00:21.851Z,38.51
2018-08-28T16:02:51.354Z,39.03
2018-08-28T16:05:20.241Z,39.46
2018-08-28T16:07:49.054Z,39.76
2018-08-28T16:10:19.201Z,40.19
2018-08-28T16:12:48.926Z,40.28
2018-08-28T16:15:17.689Z,40.30
2018-08-28T16:17:46.945Z,40.49
2018-08-28T16:20:15.960Z,41.04
2018-08-28T16:22:48.491Z,40.62
2018-08-28T16:25:20.186Z,40.98
2018-08-28T16:27:49.430Z,40.82
2018-08-28T16:30:19.105Z,40.54
2018-08-28T16:32:47.999Z,41.34
2018-08-28T16:35:18.150Z,41.89
2018-08-28T16:37:48.040Z,41.40
2018-08-28T16:40:16.754Z,41.54
2018-08-28T16:42:45.476Z,41.94
2018-08-28T16:45:14.970Z,42.24
2018-08-28T16:47:43.886Z,42.18
2018-08-28T16:50:13.621Z,43.24
2018-08-28T16:52:42.874Z,43.14
2018-08-28T16:55:11.975Z,43.74
2018-08-28T16:57:40.912Z,44.14
2018-08-28T17:00:09.365Z,43.90
2018-08-28T17:02:38.997Z,44.56
2018-08-28T17:05:07.961Z,44.13
2018-08-28T17:07:37.342Z,44.54
2018-08-28T17:10:06.302Z,45.40
2018-08-28T17:12:35.151Z,46.08
2018-08-28T17:15:05.112Z,46.65
2018-08-28T17:17:34.121Z,47.59
2018-08-28T17:20:03.785Z,48.63
2018-08-28T17:22:33.381Z,50.26
2018-08-28T17:25:03.267Z,50.50
2018-08-28T17:27:32.989Z,51.33
2018-08-28T17:30:02.029Z,50.36
2018-08-28T17:32:30.930Z,52.62
2018-08-28T17:34:59.575Z,52.93
2018-08-28T17:37:29.184Z,53.17
2018-08-28T17:39:58.949Z,53.11
2018-08-28T17:42:29.228Z,53.74
2018-08-28T17:44:58.272Z,54.07
2018-08-28T17:47:27.718Z,55.50
2018-08-28T17:49:56.711Z,56.47
2018-08-28T17:52:25.666Z,57.07
2018-08-28T17:54:55.776Z,58.26
2018-08-28T17:57:24.565Z,58.73
2018-08-28T17:59:53.946Z,58.66
2018-08-28T18:02:24.861Z,59.00
2018-08-28T18:04:54.425Z,58.65
2018-08-28T18:07:23.323Z,58.89
2018-08-28T18:09:53.480Z,59.21
2018-08-28T18:12:22.285Z,60.21
2018-08-28T18:14:51.589Z,61.20
2018-08-28T18:17:21.148Z,61.87
2018-08-28T18:19:50.543Z,61.19
2018-08-28T18:22:19.274Z,60.74
2018-08-28T18:24:49.031Z,61.41
2018-08-28T18:27:18.033Z,61.45
2018-08-28T18:29:47.280Z,61.63
2018-08-28T18:32:16.614Z,61.91
2018-08-28T18:34:45.660Z,62.93
2018-08-28T18:37:14.562Z,63.32
2018-08-28T18:39:45.058Z,64.35
2018-08-28T18:42:13.992Z,64.49
2018-08-28T18:44:43.665Z,64.50
2018-08-28T18:47:12.780Z,64.69
2018-08-28T18:49:42.131Z,63.99
2018-08-28T18:52:11.171Z,64.88
2018-08-28T18:54:40.547Z,65.69
2018-08-28T18:57:09.563Z,65.74
2018-08-28T18:59:40.141Z,65.39
2018-08-28T19:02:09.206Z,66.25
2018-08-28T19:04:37.881Z,67.04
2018-08-28T19:07:06.680Z,68.80
2018-08-28T19:09:36.854Z,68.30
2018-08-28T19:12:07.282Z,68.31
2018-08-28T19:14:36.576Z,68.53
2018-08-28T19:17:06.456Z,69.54
2018-08-28T19:19:35.887Z,69.47
2018-08-28T19:22:04.832Z,69.79
2018-08-28T19:24:34.740Z,70.47
2018-08-28T19:27:03.917Z,70.32
2018-08-28T19:29:33.463Z,70.62
2018-08-28T19:32:02.950Z,70.92
2018-08-28T19:34:32.061Z,71.48
2018-08-28T19:37:00.775Z,71.74
2018-08-28T19:39:31.696Z,71.30
2018-08-28T19:42:02.611Z,71.57
2018-08-28T19:44:32.353Z,72.03
2018-08-28T19:47:03.534Z,72.52
2018-08-28T19:49:33.102Z,72.95
2018-08-28T19:52:02.192Z,73.18
2018-08-28T19:54:30.950Z,73.62
2018-08-28T19:56:59.854Z,74.04
2018-08-28T19:59:29.336Z,74.95
2018-08-28T20:01:58.686Z,75.71
2018-08-28T20:04:27.455Z,76.14
2018-08-28T20:06:56.901Z,76.11
2018-08-28T20:09:25.952Z,75.73
2018-08-28T20:11:55.497Z,77.14
2018-08-28T20:14:26.224Z,77.03
2018-08-28T20:16:55.090Z,77.71
2018-08-28T20:19:23.740Z,78.22
2018-08-28T20:21:53.868Z,78.81
2018-08-28T20:24:23.236Z,78.80
2018-08-28T20:26:52.381Z,79.83
2018-08-28T20:29:21.571Z,79.89
2018-08-28T20:31:50.216Z,79.84
2018-08-28T20:34:19.818Z,80.41
2018-08-28T20:36:50.171Z,80.09
2018-08-28T20:39:20.445Z,80.56
2018-08-28T20:41:49.336Z,81.19
2018-08-28T20:44:19.215Z,81.34
2018-08-28T20:46:48.490Z,81.87
2018-08-28T20:49:17.665Z,82.83
2018-08-28T20:51:47.466Z,82.53
2018-08-28T20:54:16.482Z,83.38
2018-08-28T20:56:45.356Z,83.21
2018-08-28T20:59:14.245Z,83.45
2018-08-28T21:01:43.551Z,83.84
2018-08-28T21:04:12.317Z,83.60
2018-08-28T21:06:41.138Z,83.65
2018-08-28T21:09:09.915Z,83.97
2018-08-28T21:11:38.500Z,83.77
2018-08-28T21:14:07.676Z,84.31
2018-08-28T21:16:36.802Z,84.88
2018-08-28T21:19:06.050Z,84.59
2018-08-28T21:21:35.448Z,85.31
2018-08-28T21:24:04.437Z,85.65
2018-08-28T21:26:33.284Z,85.48
2018-08-28T21:29:03.168Z,86.10
2018-08-28T21:31:32.067Z,85.24
2018-08-28T21:34:01.422Z,85.23
2018-08-28T21:36:30.276Z,85.67
2018-08-28T21:38:58.992Z,85.87
2018-08-28T21:41:29.648Z,86.18
2018-08-28T21:43:59.177Z,86.62
2018-08-28T21:46:28.627Z,86.35
2018-08-28T21:48:57.397Z,86.09
2018-08-28T21:51:26.919Z,86.45
2018-08-28T21:53:56.709Z,86.51
2018-08-28T21:56:25.410Z,86.30
2018-08-28T21:58:54.806Z,86.21
2018-08-28T22:01:23.915Z,86.57
2018-08-28T22:03:53.747Z,86.27
2018-08-28T22:28:48.391Z,88.76
2018-08-28T22:31:17.270Z,88.82
2018-08-28T22:33:45.941Z,88.78
2018-08-28T22:36:15.136Z,88.71
2018-08-28T22:38:44.220Z,88.89
2018-08-28T22:41:13.583Z,88.94
2018-08-28T22:43:42.240Z,89.10
2018-08-28T22:46:10.985Z,89.21
2018-08-28T22:48:40.518Z,89.15
2018-08-28T22:51:09.486Z,89.79
2018-08-28T22:53:38.336Z,90.11
2018-08-28T22:56:07.119Z,90.40
2018-08-28T22:58:35.817Z,90.12
2018-08-28T23:01:06.231Z,89.81
2018-08-28T23:03:34.815Z,89.92
2018-08-28T23:06:05.516Z,89.83
2018-08-28T23:08:34.138Z,89.70
2018-08-28T23:11:02.907Z,89.86
2018-08-28T23:13:31.617Z,89.97
2018-08-28T23:16:00.511Z,90.14
2018-08-28T23:18:29.243Z,90.20
2018-08-28T23:20:58.511Z,90.43
2018-08-28T23:23:27.155Z,90.82
2018-08-28T23:25:56.797Z,90.68
2018-08-28T23:28:25.587Z,91.33
2018-08-28T23:30:54.331Z,91.17
2018-08-28T23:33:23.060Z,91.15
2018-08-28T23:35:51.626Z,90.94
2018-08-28T23:38:20.241Z,91.46
2018-08-28T23:40:49.026Z,91.02
2018-08-28T23:43:17.907Z,91.57
2018-08-28T23:45:46.522Z,91.34
2018-08-28T23:48:15.862Z,91.77
2018-08-28T23:50:45.938Z,91.90
2018-08-28T23:53:15.727Z,92.29
2018-08-28T23:55:47.320Z,91.95
2018-08-28T23:58:16.606Z,92.48
